Time;durP1;ratioP1;P1;durP2;ratioP2;P2;SDS_P1;SDS_P2;PMS_P1;PMS_P2;Temp;Humidity;BMP_temperature;BMP_pressure;BME280_temperature;BME280_humidity;BME280_pressure;Samples;Min_cycle;Max_cycle;Signal;HPM_P1;HPM_P2
2022/12/15 00:40:03;;;;;;;39.73;26.50;;;-0.10;99.90;;;;;;5113412;28;20546;-61
2022/12/15 00:42:31;;;;;;;36.40;26.60;;;-0.10;99.90;;;;;;5113693;28;20470;-60
2022/12/15 00:44:59;;;;;;;35.00;25.47;;;-0.10;99.90;;;;;;5114603;28;20529;-60
2022/12/15 00:47:25;;;;;;;36.40;24.33;;;-0.20;99.90;;;;;;5117394;28;20936;-61
2022/12/15 01:20:16;;;;;;;33.43;24.33;;;-0.30;99.90;;;;;;5116977;28;20460;-61
2022/12/15 01:22:44;;;;;;;34.33;23.47;;;-0.30;99.90;;;;;;5116626;28;20458;-60
2022/12/15 01:25:13;;;;;;;34.17;23.03;;;-0.20;99.90;;;;;;5116759;28;20446;-60
2022/12/15 01:27:41;;;;;;;36.63;24.27;;;-0.20;99.90;;;;;;5116641;28;20969;-60
2022/12/15 01:30:10;;;;;;;32.23;24.13;;;-0.10;99.90;;;;;;5116463;28;20964;-60
2022/12/15 01:32:38;;;;;;;36.30;24.97;;;-0.10;99.90;;;;;;5116546;28;20948;-60
2022/12/15 01:35:06;;;;;;;31.30;23.43;;;-0.20;99.90;;;;;;5116982;28;20470;-60
2022/12/15 01:37:34;;;;;;;34.00;23.53;;;-0.20;99.90;;;;;;5116176;28;20510;-60
2022/12/15 01:42:47;;;;;;;39.17;25.83;;;-0.30;99.90;;;;;;5116443;28;20817;-61
2022/12/15 01:45:47;;;;;;;36.23;23.67;;;-0.30;99.90;;;;;;5116341;28;20537;-60
2022/12/15 01:48:19;;;;;;;39.80;24.27;;;-0.20;99.90;;;;;;5116693;28;20431;-60
2022/12/15 01:50:54;;;;;;;32.90;24.60;;;-0.20;99.90;;;;;;5116125;28;20550;-60
2022/12/15 01:53:21;;;;;;;33.37;23.77;;;-0.10;99.90;;;;;;5116466;28;20527;-61
2022/12/15 01:55:49;;;;;;;40.67;27.10;;;-0.10;99.90;;;;;;5116292;28;20534;-61
2022/12/15 01:58:20;;;;;;;40.60;25.33;;;0.00;99.90;;;;;;5115253;28;20482;-61
2022/12/15 02:00:47;;;;;;;36.77;26.80;;;-0.10;99.90;;;;;;5116003;28;20990;-60
2022/12/15 02:03:14;;;;;;;43.73;26.57;;;-0.20;99.90;;;;;;5115930;28;20561;-60
2022/12/15 02:05:42;;;;;;;36.30;25.83;;;-0.20;99.90;;;;;;5116274;28;20446;-60
2022/12/15 02:08:11;;;;;;;37.07;26.23;;;-0.10;99.90;;;;;;5116353;28;20495;-60
2022/12/15 02:10:50;;;;;;;38.30;24.90;;;-0.10;99.90;;;;;;5116160;28;20492;-60
2022/12/15 02:13:28;;;;;;;39.17;25.10;;;-0.10;99.90;;;;;;5116166;28;20477;-60
2022/12/15 02:16:03;;;;;;;38.10;26.17;;;-0.20;99.90;;;;;;5116136;28;20427;-61
2022/12/15 02:18:42;;;;;;;37.43;27.73;;;-0.20;99.90;;;;;;5115663;28;20514;-60
2022/12/15 02:21:15;;;;;;;33.77;25.27;;;-0.10;99.90;;;;;;5115814;28;20513;-61
2022/12/15 02:24:31;;;;;;;38.60;25.20;;;-0.10;99.90;;;;;;5115903;28;20435;-60
2022/12/15 02:27:13;;;;;;;37.60;25.50;;;-0.20;99.90;;;;;;5115523;28;20498;-61
2022/12/15 02:30:18;;;;;;;38.70;24.77;;;-0.10;99.90;;;;;;5115479;28;20466;-61
2022/12/15 02:32:55;;;;;;;40.50;27.10;;;-0.20;99.90;;;;;;5115504;28;20426;-60
2022/12/15 02:35:27;;;;;;;40.80;27.63;;;-0.20;99.90;;;;;;5115370;28;20913;-60
2022/12/15 02:37:55;;;;;;;39.70;26.00;;;-0.20;99.90;;;;;;5115449;28;20884;-60
2022/12/15 02:40:23;;;;;;;39.67;27.70;;;-0.10;99.90;;;;;;5115557;28;20467;-60
2022/12/15 02:42:53;;;;;;;45.20;28.73;;;-0.10;99.90;;;;;;5115241;28;20509;-61
2022/12/15 02:45:31;;;;;;;35.70;24.43;;;-0.10;99.90;;;;;;5115223;28;20510;-62
2022/12/15 02:48:10;;;;;;;39.73;26.57;;;0.00;99.90;;;;;;5115423;28;20431;-60
2022/12/15 02:50:57;;;;;;;34.60;26.30;;;-0.20;99.90;;;;;;5115011;28;20557;-60
2022/12/15 02:53:49;;;;;;;33.20;23.70;;;-0.10;99.90;;;;;;5115285;28;20430;-60
2022/12/15 02:56:25;;;;;;;39.07;26.70;;;0.00;99.90;;;;;;5114981;28;20830;-60
2022/12/15 02:59:04;;;;;;;41.90;27.90;;;0.00;99.90;;;;;;5114816;28;20461;-60
2022/12/15 03:01:36;;;;;;;40.03;26.47;;;-0.20;99.90;;;;;;5114914;28;20469;-60
2022/12/15 03:04:07;;;;;;;41.57;28.00;;;-0.30;99.90;;;;;;5114914;28;20474;-60
2022/12/15 03:06:34;;;;;;;43.90;26.93;;;-0.30;99.90;;;;;;5114691;28;20469;-60
2022/12/15 03:09:02;;;;;;;48.00;30.40;;;-0.40;99.90;;;;;;5114744;28;20530;-60
2022/12/15 03:11:29;;;;;;;35.53;25.50;;;-0.40;99.90;;;;;;5114688;28;20952;-60
2022/12/15 03:13:56;;;;;;;41.70;27.83;;;-0.40;99.90;;;;;;5114873;28;20546;-60
2022/12/15 03:16:24;;;;;;;45.10;31.40;;;-0.40;99.90;;;;;;5114638;28;20446;-60
2022/12/15 03:18:52;;;;;;;46.47;30.70;;;-0.40;99.90;;;;;;5114581;28;20449;-60
2022/12/15 03:21:21;;;;;;;38.93;28.80;;;-0.40;99.90;;;;;;5114795;28;20447;-60
2022/12/15 03:23:48;;;;;;;43.57;27.10;;;-0.50;99.90;;;;;;5114293;28;20518;-60
2022/12/15 03:26:16;;;;;;;47.53;26.93;;;-0.40;99.90;;;;;;5114993;28;20482;-60
2022/12/15 03:28:43;;;;;;;44.73;28.57;;;-0.40;99.90;;;;;;5114605;28;20472;-60
2022/12/15 03:31:10;;;;;;;48.73;32.50;;;-0.30;99.90;;;;;;5114300;28;20960;-60
2022/12/15 03:33:38;;;;;;;48.80;29.47;;;-0.30;99.90;;;;;;5114209;28;20496;-60
2022/12/15 03:36:06;;;;;;;48.30;27.83;;;-0.30;99.90;;;;;;5114636;28;20446;-60
2022/12/15 03:38:34;;;;;;;42.27;28.57;;;-0.40;99.90;;;;;;5114103;28;20555;-60
2022/12/15 03:41:06;;;;;;;41.60;27.80;;;-0.40;99.90;;;;;;5114574;28;20618;-60
2022/12/15 03:43:34;;;;;;;44.23;28.93;;;-0.30;99.90;;;;;;5113974;28;20569;-60
2022/12/15 03:46:01;;;;;;;44.97;26.30;;;-0.20;99.90;;;;;;5114393;28;20867;-60
2022/12/15 03:48:28;;;;;;;43.90;28.23;;;-0.30;99.90;;;;;;5113981;28;20446;-61
2022/12/15 03:50:56;;;;;;;43.20;27.97;;;-0.30;99.90;;;;;;5113946;28;20964;-61
2022/12/15 03:53:23;;;;;;;43.53;26.57;;;-0.20;99.90;;;;;;5113927;28;20963;-60
2022/12/15 03:55:52;;;;;;;45.83;28.67;;;-0.20;99.90;;;;;;5114318;28;20446;-60
2022/12/15 03:58:19;;;;;;;43.90;28.03;;;-0.20;99.90;;;;;;5114188;28;20473;-60
2022/12/15 04:00:47;;;;;;;42.03;27.50;;;-0.30;99.90;;;;;;5114235;28;20472;-60
2022/12/15 04:03:15;;;;;;;36.07;25.37;;;-0.30;99.90;;;;;;5113766;28;20485;-60
2022/12/15 04:05:42;;;;;;;40.60;26.70;;;-0.30;99.90;;;;;;5113858;28;20442;-60
2022/12/15 04:08:12;;;;;;;44.67;28.00;;;-0.30;99.90;;;;;;5114093;28;20485;-60
2022/12/15 04:10:40;;;;;;;45.43;27.87;;;-0.40;99.90;;;;;;5113747;28;20477;-60
2022/12/15 04:13:10;;;;;;;42.90;25.93;;;-0.40;99.90;;;;;;5113734;28;20503;-60
2022/12/15 04:15:39;;;;;;;39.80;28.07;;;-0.50;99.90;;;;;;5114078;28;20846;-60
2022/12/15 04:18:08;;;;;;;41.63;27.50;;;-0.50;99.90;;;;;;5113512;28;20481;-60
2022/12/15 04:20:36;;;;;;;39.13;28.17;;;-0.40;99.90;;;;;;5115556;28;20462;-60
2022/12/15 04:23:06;;;;;;;48.50;29.47;;;-0.50;99.90;;;;;;5117877;28;20475;-61
2022/12/15 05:31:51;;;;;;;45.63;27.90;;;-0.20;99.90;;;;;;5116713;28;20495;-60
2022/12/15 05:34:21;;;;;;;40.03;28.60;;;-0.30;99.90;;;;;;5116872;28;20826;-60
2022/12/15 05:36:49;;;;;;;44.70;27.03;;;-0.30;99.90;;;;;;5116641;28;20507;-60
2022/12/15 05:39:17;;;;;;;44.17;28.50;;;-0.30;99.90;;;;;;5116387;28;20478;-60
2022/12/15 05:41:44;;;;;;;42.07;26.83;;;-0.30;99.90;;;;;;5116764;28;20833;-60
2022/12/15 05:44:12;;;;;;;39.70;29.57;;;-0.20;99.90;;;;;;5116544;28;20479;-60
2022/12/15 05:46:39;;;;;;;44.10;28.10;;;-0.10;99.90;;;;;;5116373;28;20450;-61
2022/12/15 05:49:08;;;;;;;46.87;29.00;;;-0.10;99.90;;;;;;5116519;28;20470;-60
2022/12/15 05:51:39;;;;;;;41.50;27.90;;;-0.20;99.90;;;;;;5116589;28;20442;-61
2022/12/15 05:54:07;;;;;;;45.43;28.23;;;-0.30;99.90;;;;;;5116124;28;20429;-61
2022/12/15 05:56:35;;;;;;;39.90;25.60;;;-0.20;99.90;;;;;;5116188;28;20454;-62
2022/12/15 05:59:03;;;;;;;46.03;28.23;;;-0.30;99.90;;;;;;5115931;28;20504;-60
2022/12/15 06:01:30;;;;;;;45.03;28.97;;;-0.30;99.90;;;;;;5116273;28;20449;-62
2022/12/15 06:03:58;;;;;;;39.93;25.90;;;-0.30;99.90;;;;;;5115921;28;20485;-61
2022/12/15 06:06:26;;;;;;;47.47;29.57;;;-0.20;99.90;;;;;;5115823;28;20953;-61
2022/12/15 06:08:55;;;;;;;49.53;26.63;;;-0.10;99.90;;;;;;5115779;28;20945;-61
2022/12/15 06:11:23;;;;;;;37.93;27.17;;;-0.10;99.90;;;;;;5115805;28;20838;-61
2022/12/15 06:13:50;;;;;;;47.83;28.80;;;-0.10;99.90;;;;;;5115777;28;20449;-61
2022/12/15 06:16:19;;;;;;;40.23;26.77;;;-0.10;99.90;;;;;;5115510;28;20454;-61
2022/12/15 06:18:49;;;;;;;46.03;27.00;;;-0.20;99.90;;;;;;5115933;28;20857;-60
2022/12/15 06:21:20;;;;;;;39.90;27.67;;;-0.10;99.90;;;;;;5115469;28;20455;-61
2022/12/15 06:23:48;;;;;;;43.70;26.87;;;0.00;99.90;;;;;;5115135;28;20506;-61
2022/12/15 06:26:19;;;;;;;44.80;25.67;;;-0.10;99.90;;;;;;5115701;28;20448;-61
2022/12/15 06:28:47;;;;;;;46.03;28.77;;;-0.10;99.90;;;;;;5116005;28;20439;-61
2022/12/15 06:31:16;;;;;;;40.83;28.37;;;-0.10;99.90;;;;;;5115105;28;20446;-61
2022/12/15 06:33:44;;;;;;;43.43;27.43;;;-0.10;99.90;;;;;;5115570;28;20516;-61
2022/12/15 06:36:14;;;;;;;40.37;28.07;;;-0.20;99.90;;;;;;5114952;28;20499;-62
2022/12/15 06:38:42;;;;;;;46.37;26.67;;;0.00;99.90;;;;;;5115187;28;20482;-63
2022/12/15 06:41:12;;;;;;;46.10;26.30;;;0.10;99.90;;;;;;5114908;28;20557;-62
2022/12/15 06:43:40;;;;;;;44.00;27.50;;;0.00;99.90;;;;;;5114553;28;20532;-62
2022/12/15 06:46:08;;;;;;;45.60;26.77;;;0.10;99.90;;;;;;5115112;28;20446;-62
2022/12/15 06:48:36;;;;;;;38.90;25.57;;;0.10;99.90;;;;;;5115311;28;20450;-60
2022/12/15 06:51:04;;;;;;;41.13;29.90;;;0.10;99.90;;;;;;5114588;28;20474;-59
2022/12/15 06:53:32;;;;;;;42.37;25.77;;;0.00;99.90;;;;;;5114782;28;20951;-60
2022/12/15 06:56:01;;;;;;;42.20;26.10;;;0.10;99.90;;;;;;5115146;28;20515;-59
2022/12/15 06:58:29;;;;;;;46.33;29.67;;;0.20;99.90;;;;;;5114865;28;20450;-62
2022/12/15 07:00:58;;;;;;;41.60;27.23;;;0.10;99.90;;;;;;5114964;28;20521;-59
2022/12/15 07:03:26;;;;;;;43.17;28.03;;;0.10;99.90;;;;;;5114924;28;20478;-61
2022/12/15 07:06:02;;;;;;;38.90;25.40;;;0.20;99.90;;;;;;5115013;28;20864;-59
2022/12/15 07:08:30;;;;;;;46.77;26.20;;;0.20;99.90;;;;;;5115028;28;20924;-61
2022/12/15 07:10:57;;;;;;;40.90;27.00;;;0.20;99.90;;;;;;5114728;28;20519;-60
2022/12/15 07:13:25;;;;;;;46.33;29.33;;;0.20;99.90;;;;;;5114463;28;20483;-60
2022/12/15 07:15:52;;;;;;;44.17;28.70;;;0.20;99.90;;;;;;5114355;28;20472;-59
2022/12/15 07:18:21;;;;;;;52.23;29.40;;;0.20;99.90;;;;;;5114515;28;20549;-59
2022/12/15 07:20:48;;;;;;;40.87;27.67;;;0.10;99.90;;;;;;5114464;28;20544;-61
2022/12/15 07:23:15;;;;;;;38.23;27.03;;;0.20;99.90;;;;;;5114260;28;20482;-60
2022/12/15 07:25:43;;;;;;;40.70;28.67;;;0.20;99.90;;;;;;5114278;28;20478;-60
2022/12/15 07:28:10;;;;;;;44.47;27.60;;;0.10;99.90;;;;;;5114315;28;20492;-61
2022/12/15 07:30:38;;;;;;;38.07;25.93;;;0.10;99.90;;;;;;5113871;28;20509;-59
2022/12/15 07:33:06;;;;;;;44.77;26.13;;;0.10;99.90;;;;;;5114219;28;20929;-61
2022/12/15 07:35:34;;;;;;;37.90;25.27;;;0.10;99.90;;;;;;5113973;28;20537;-61
2022/12/15 07:38:06;;;;;;;39.93;26.13;;;0.10;99.90;;;;;;5113827;28;20539;-61
2022/12/15 07:40:33;;;;;;;40.83;26.33;;;0.10;99.90;;;;;;5114311;28;20595;-60
2022/12/15 07:43:01;;;;;;;39.47;27.90;;;0.20;99.90;;;;;;5113962;28;20478;-61
2022/12/15 07:45:28;;;;;;;40.30;26.40;;;0.10;99.90;;;;;;5113597;28;20442;-60
2022/12/15 07:47:56;;;;;;;41.40;26.47;;;0.10;99.90;;;;;;5113870;28;20447;-59
2022/12/15 07:50:23;;;;;;;39.73;26.00;;;0.10;99.90;;;;;;5114111;28;20489;-61
2022/12/15 07:52:52;;;;;;;49.53;27.20;;;0.00;99.90;;;;;;5114124;28;20447;-61
2022/12/15 07:55:20;;;;;;;45.43;27.57;;;0.00;99.90;;;;;;5112745;28;20896;-59
2022/12/15 07:57:48;;;;;;;43.77;27.40;;;-0.10;99.90;;;;;;5114107;28;20443;-60
2022/12/15 08:00:16;;;;;;;41.63;28.33;;;-0.10;99.90;;;;;;5113511;28;20562;-59
2022/12/15 08:02:43;;;;;;;43.77;28.30;;;-0.10;99.90;;;;;;5113613;28;20446;-59
2022/12/15 08:05:11;;;;;;;41.00;25.40;;;-0.10;99.90;;;;;;5113507;28;21001;-59
2022/12/15 08:07:38;;;;;;;43.37;27.80;;;0.00;99.90;;;;;;5113714;28;20929;-61
2022/12/15 08:10:08;;;;;;;47.77;27.17;;;0.10;99.90;;;;;;5113691;28;20466;-59
2022/12/15 08:12:35;;;;;;;42.63;27.40;;;0.20;99.90;;;;;;5113934;28;20866;-59
2022/12/15 08:15:02;;;;;;;41.77;24.93;;;0.10;99.90;;;;;;5113799;28;20501;-61
2022/12/15 08:17:29;;;;;;;44.97;26.37;;;0.10;99.90;;;;;;5113475;28;20446;-60
2022/12/15 08:19:57;;;;;;;46.60;27.20;;;0.10;99.90;;;;;;5113108;28;20505;-61
2022/12/15 08:22:24;;;;;;;51.77;30.67;;;0.20;99.90;;;;;;5113531;28;20564;-60
2022/12/15 08:24:52;;;;;;;44.00;26.93;;;0.30;99.90;;;;;;5113268;28;20573;-59
2022/12/15 08:27:22;;;;;;;39.40;25.30;;;0.20;99.90;;;;;;5113680;28;20446;-61
2022/12/15 08:29:50;;;;;;;42.17;26.17;;;0.20;99.90;;;;;;5113364;28;20562;-59
2022/12/15 08:32:17;;;;;;;44.00;26.63;;;0.20;99.90;;;;;;5113248;28;20935;-60
2022/12/15 08:34:46;;;;;;;43.37;27.80;;;0.20;99.90;;;;;;5113116;28;20496;-60
2022/12/15 08:37:14;;;;;;;46.23;29.03;;;0.20;99.90;;;;;;5113513;28;20450;-59
2022/12/15 08:39:42;;;;;;;44.80;27.17;;;0.20;99.90;;;;;;5112890;28;20478;-61
2022/12/15 08:42:09;;;;;;;40.07;27.47;;;0.30;99.90;;;;;;5113352;28;20900;-60
2022/12/15 08:44:38;;;;;;;39.70;26.30;;;0.30;99.90;;;;;;5112942;28;20474;-60
2022/12/15 08:47:06;;;;;;;56.23;31.00;;;0.20;99.90;;;;;;5113169;28;20442;-62
2022/12/15 08:49:34;;;;;;;44.90;28.93;;;0.20;99.90;;;;;;5113168;28;20494;-60
2022/12/15 08:52:01;;;;;;;43.57;25.10;;;0.20;99.90;;;;;;5113374;28;20529;-60
2022/12/15 08:54:28;;;;;;;40.83;24.90;;;0.30;99.90;;;;;;5112844;28;20492;-60
2022/12/15 08:56:55;;;;;;;43.77;28.37;;;0.40;99.90;;;;;;5112957;28;20446;-60
2022/12/15 08:59:23;;;;;;;41.20;28.30;;;0.60;99.90;;;;;;5112986;28;20498;-61
2022/12/15 09:01:53;;;;;;;41.27;25.90;;;0.60;99.90;;;;;;5112850;28;20443;-61
2022/12/15 09:04:21;;;;;;;45.77;28.53;;;0.50;99.90;;;;;;5113099;28;20474;-61
2022/12/15 09:06:48;;;;;;;43.97;27.33;;;0.60;99.90;;;;;;5115058;28;20442;-61
2022/12/15 09:09:16;;;;;;;47.07;29.30;;;0.60;99.90;;;;;;5116849;28;20458;-61
2022/12/15 09:11:46;;;;;;;44.77;26.37;;;0.60;99.90;;;;;;5116713;28;20833;-61
2022/12/15 09:14:13;;;;;;;60.30;32.80;;;0.70;99.90;;;;;;5116998;28;20503;-60
2022/12/15 09:16:40;;;;;;;50.33;27.87;;;0.70;99.90;;;;;;5117077;28;20893;-61
2022/12/15 09:19:10;;;;;;;39.37;26.97;;;0.60;99.90;;;;;;5116576;28;20482;-61
2022/12/15 09:21:38;;;;;;;40.87;27.30;;;0.60;99.90;;;;;;5116700;28;20588;-60
2022/12/15 09:24:06;;;;;;;42.40;27.83;;;0.70;99.90;;;;;;5116143;28;21094;-61
2022/12/15 09:26:35;;;;;;;46.77;27.50;;;0.70;99.90;;;;;;5116119;28;20438;-61
2022/12/15 09:29:02;;;;;;;44.40;27.87;;;0.60;99.90;;;;;;5116270;28;20451;-61
2022/12/15 09:31:32;;;;;;;45.70;27.70;;;0.60;99.90;;;;;;5116510;28;20529;-59
2022/12/15 09:34:01;;;;;;;45.13;27.77;;;0.80;99.90;;;;;;5116710;28;20443;-61
2022/12/15 09:36:31;;;;;;;46.73;28.37;;;0.80;99.90;;;;;;5116302;28;20442;-60
2022/12/15 09:39:00;;;;;;;38.70;27.60;;;0.80;99.90;;;;;;5116666;28;20965;-61
2022/12/15 09:41:30;;;;;;;52.10;29.70;;;0.80;99.90;;;;;;5116450;28;20446;-60
2022/12/15 09:44:02;;;;;;;43.03;26.30;;;0.80;99.90;;;;;;5116407;28;20517;-61
2022/12/15 09:46:51;;;;;;;37.00;26.33;;;0.90;99.90;;;;;;5116105;28;20522;-60
2022/12/15 09:49:41;;;;;;;38.73;24.33;;;0.80;99.90;;;;;;5116310;28;20820;-60
2022/12/15 09:52:13;;;;;;;42.07;28.23;;;1.00;99.90;;;;;;5115988;28;20458;-60
2022/12/15 09:54:42;;;;;;;46.50;26.30;;;1.00;99.90;;;;;;5115877;28;20427;-60
2022/12/15 09:57:20;;;;;;;38.53;25.70;;;0.90;99.90;;;;;;5116003;28;20450;-60
2022/12/15 10:00:00;;;;;;;47.33;26.37;;;0.90;99.90;;;;;;5115879;28;20991;-60
2022/12/15 10:02:47;;;;;;;38.80;27.10;;;0.90;99.90;;;;;;5116216;28;20437;-60
2022/12/15 10:05:31;;;;;;;50.43;26.70;;;0.90;99.90;;;;;;5115624;28;20463;-60
2022/12/15 10:08:01;;;;;;;49.13;24.90;;;0.90;99.90;;;;;;5115926;28;20455;-60
2022/12/15 10:10:34;;;;;;;44.07;26.27;;;1.10;99.90;;;;;;5115588;28;20498;-60
2022/12/15 10:13:09;;;;;;;40.03;26.47;;;1.00;99.90;;;;;;5115668;28;20863;-60
2022/12/15 10:15:45;;;;;;;44.20;26.97;;;1.00;99.90;;;;;;5115871;28;20475;-60
2022/12/15 10:18:21;;;;;;;43.67;26.27;;;1.10;99.90;;;;;;5114679;28;20426;-60
2022/12/15 10:20:48;;;;;;;40.80;24.60;;;1.30;99.90;;;;;;5115552;28;20541;-60
2022/12/15 10:23:18;;;;;;;41.13;25.17;;;1.20;99.90;;;;;;5115686;28;20447;-60
2022/12/15 10:25:49;;;;;;;44.43;26.60;;;1.30;99.90;;;;;;5115533;28;20508;-60
2022/12/15 10:28:41;;;;;;;53.20;34.43;;;1.40;99.90;;;;;;5115176;28;20812;-59
2022/12/15 10:31:23;;;;;;;42.10;25.90;;;1.30;99.90;;;;;;5114889;28;20458;-60
2022/12/15 10:33:59;;;;;;;45.93;25.37;;;1.30;99.90;;;;;;5114950;28;20430;-60
2022/12/15 10:36:30;;;;;;;36.87;23.97;;;1.20;99.90;;;;;;5115222;28;20430;-61
2022/12/15 10:39:01;;;;;;;42.57;26.50;;;1.30;99.90;;;;;;5114763;28;20478;-61
2022/12/15 10:41:34;;;;;;;40.07;27.50;;;1.30;99.90;;;;;;5114983;28;20777;-59
2022/12/15 10:44:03;;;;;;;41.30;27.70;;;1.40;99.90;;;;;;5115015;28;20473;-62
2022/12/15 10:46:31;;;;;;;40.23;23.97;;;1.50;99.90;;;;;;5114944;28;20537;-60
2022/12/15 10:49:21;;;;;;;40.70;25.87;;;1.50;99.90;;;;;;5115106;28;20450;-59
2022/12/15 10:51:53;;;;;;;42.60;28.17;;;1.40;99.90;;;;;;5114602;28;20538;-59
2022/12/15 10:54:22;;;;;;;39.87;26.80;;;1.30;99.90;;;;;;5115057;28;20772;-59
2022/12/15 10:56:52;;;;;;;35.83;25.50;;;1.40;99.90;;;;;;5114573;28;20447;-60
2022/12/15 10:59:24;;;;;;;40.17;27.10;;;1.30;99.90;;;;;;5114800;28;20519;-60
2022/12/15 11:01:52;;;;;;;40.10;26.63;;;1.30;99.90;;;;;;5114590;28;20506;-60
2022/12/15 11:04:27;;;;;;;38.23;24.83;;;1.30;99.90;;;;;;5114476;28;20587;-59
2022/12/15 11:06:57;;;;;;;36.07;23.80;;;1.20;99.90;;;;;;5114013;28;20549;-59
2022/12/15 11:09:31;;;;;;;42.00;25.90;;;1.10;99.90;;;;;;5114223;28;21003;-59
2022/12/15 11:14:46;;;;;;;38.80;24.27;;;1.10;99.90;;;;;;5109932;28;20531;-59
2022/12/15 11:17:17;;;;;;;41.23;26.77;;;1.10;99.90;;;;;;5110106;28;20493;-59
2022/12/15 11:19:50;;;;;;;39.90;24.53;;;1.10;99.90;;;;;;5114313;28;20830;-60
2022/12/15 11:22:30;;;;;;;38.83;26.40;;;1.30;99.90;;;;;;5114380;28;20431;-60
2022/12/15 11:25:05;;;;;;;42.13;26.33;;;1.40;99.90;;;;;;5113475;28;20466;-59
2022/12/15 11:27:35;;;;;;;44.43;26.50;;;1.50;99.90;;;;;;5114169;28;20921;-59
2022/12/15 11:30:13;;;;;;;44.07;26.97;;;1.40;99.90;;;;;;5113908;28;20469;-60
2022/12/15 11:32:43;;;;;;;38.90;25.97;;;1.50;99.90;;;;;;5114236;28;20435;-59
2022/12/15 11:35:13;;;;;;;42.63;26.37;;;1.60;99.90;;;;;;5113907;28;20466;-60
2022/12/15 11:37:43;;;;;;;42.10;25.50;;;1.60;99.90;;;;;;5113715;28;20461;-59
2022/12/15 11:40:31;;;;;;;32.70;24.97;;;1.70;99.90;;;;;;5114140;28;20467;-60
2022/12/15 11:43:31;;;;;;;37.07;26.10;;;1.60;99.90;;;;;;5113920;28;20944;-60
2022/12/15 11:46:19;;;;;;;39.10;25.03;;;1.60;99.90;;;;;;5054668;28;20494;-60
2022/12/15 11:49:05;;;;;;;38.07;25.03;;;1.60;99.90;;;;;;5113910;28;20430;-60
2022/12/15 11:51:41;;;;;;;45.00;25.60;;;1.40;99.90;;;;;;5114062;28;20426;-60
2022/12/15 11:54:19;;;;;;;42.70;27.00;;;1.40;99.90;;;;;;5113632;28;20458;-60
2022/12/15 11:56:56;;;;;;;41.20;27.47;;;1.40;99.90;;;;;;5113958;28;20418;-60
2022/12/15 11:59:50;;;;;;;37.77;25.00;;;1.50;99.90;;;;;;5113751;28;20458;-60
2022/12/15 12:02:43;;;;;;;47.43;28.47;;;1.40;99.90;;;;;;5113391;28;20462;-60
2022/12/15 12:05:36;;;;;;;52.83;27.20;;;1.40;99.90;;;;;;5113613;28;20462;-60
2022/12/15 12:08:21;;;;;;;41.00;25.70;;;1.40;99.90;;;;;;5113181;28;20909;-60
2022/12/15 12:10:59;;;;;;;47.57;26.20;;;1.40;99.90;;;;;;5113745;28;20569;-60
2022/12/15 12:13:35;;;;;;;42.93;27.37;;;1.50;99.90;;;;;;5113368;28;20431;-59
2022/12/15 12:16:11;;;;;;;39.73;26.37;;;1.30;99.90;;;;;;5113286;28;20419;-60
2022/12/15 12:18:43;;;;;;;40.40;27.37;;;1.20;99.90;;;;;;5113424;28;20426;-59
2022/12/15 12:21:15;;;;;;;36.73;25.30;;;1.20;99.90;;;;;;5113557;28;20802;-59
2022/12/15 12:23:50;;;;;;;41.63;25.90;;;1.30;99.90;;;;;;5113416;28;20451;-59
2022/12/15 12:26:22;;;;;;;37.80;24.60;;;1.40;99.90;;;;;;5113416;28;21028;-60
2022/12/15 12:28:58;;;;;;;46.70;25.67;;;1.40;99.90;;;;;;5113079;28;20956;-60
2022/12/15 12:31:34;;;;;;;40.40;26.80;;;1.50;99.90;;;;;;5113325;28;20469;-60
2022/12/15 12:34:06;;;;;;;42.17;25.77;;;1.40;99.90;;;;;;5113753;28;20418;-60
2022/12/15 12:36:34;;;;;;;48.97;28.70;;;1.50;99.90;;;;;;5112965;28;20431;-59
2022/12/15 12:39:02;;;;;;;44.00;26.40;;;1.50;99.90;;;;;;5112856;28;20486;-60
2022/12/15 12:41:39;;;;;;;41.27;25.63;;;1.70;99.90;;;;;;5115169;28;20461;-59
2022/12/15 12:44:15;;;;;;;37.27;25.70;;;1.70;99.90;;;;;;5117219;28;20427;-61
2022/12/15 12:46:47;;;;;;;43.43;24.53;;;1.80;99.90;;;;;;5117205;28;20885;-60
2022/12/15 12:49:21;;;;;;;37.00;25.20;;;1.80;99.90;;;;;;5117222;28;20983;-60
2022/12/15 12:51:52;;;;;;;34.10;24.87;;;1.70;99.90;;;;;;5117330;28;20466;-60
2022/12/15 12:54:43;;;;;;;33.80;23.10;;;1.80;99.90;;;;;;5117259;28;20423;-60
2022/12/15 12:57:36;;;;;;;36.47;24.13;;;1.80;99.90;;;;;;5117066;28;20451;-60
2022/12/15 13:00:17;;;;;;;33.60;24.07;;;1.90;99.90;;;;;;5117281;28;20466;-60
2022/12/15 13:02:57;;;;;;;35.03;24.30;;;1.90;99.90;;;;;;5117385;28;20426;-60
2022/12/15 13:05:30;;;;;;;36.10;25.67;;;1.70;99.90;;;;;;5116609;28;20462;-60
2022/12/15 13:08:44;;;;;;;42.07;24.77;;;1.80;99.90;;;;;;5117371;28;20461;-60
2022/12/15 13:11:57;;;;;;;35.90;23.87;;;1.90;99.90;;;;;;5116843;28;20546;-60
2022/12/15 13:14:49;;;;;;;45.73;27.53;;;1.80;99.90;;;;;;5116816;28;20427;-60
2022/12/15 13:17:26;;;;;;;38.83;24.80;;;1.70;99.90;;;;;;5117252;28;20754;-60
2022/12/15 13:20:22;;;;;;;43.07;26.60;;;1.70;99.90;;;;;;5116747;28;20885;-60
2022/12/15 13:22:50;;;;;;;37.13;23.57;;;1.60;99.90;;;;;;5116913;28;20426;-60
2022/12/15 13:25:38;;;;;;;39.30;24.47;;;1.50;99.90;;;;;;5116346;28;20482;-60
2022/12/15 13:28:30;;;;;;;39.47;24.77;;;1.50;99.90;;;;;;5116598;28;20476;-60
2022/12/15 13:31:33;;;;;;;42.37;26.40;;;1.60;99.90;;;;;;5110947;28;20980;-60
2022/12/15 13:34:26;;;;;;;41.27;23.87;;;1.60;99.90;;;;;;5116406;28;20431;-60
2022/12/15 13:37:01;;;;;;;32.80;22.53;;;1.70;99.90;;;;;;5116649;28;20446;-60
2022/12/15 13:39:53;;;;;;;40.40;25.63;;;1.70;99.90;;;;;;5116167;28;20477;-60
2022/12/15 13:42:33;;;;;;;34.97;23.30;;;1.60;99.90;;;;;;5111536;28;20482;-60
2022/12/15 13:45:35;;;;;;;35.93;24.10;;;1.70;99.90;;;;;;5116206;28;20467;-60
2022/12/15 13:48:29;;;;;;;38.20;23.53;;;1.80;99.90;;;;;;5115919;28;20784;-60
2022/12/15 13:51:04;;;;;;;36.50;23.70;;;1.70;99.90;;;;;;5108085;28;20474;-62
2022/12/15 13:53:38;;;;;;;37.90;26.00;;;1.70;99.90;;;;;;5114501;28;20855;-60
2022/12/15 13:56:24;;;;;;;38.43;24.10;;;1.60;99.90;;;;;;5115828;28;20466;-60
2022/12/15 13:58:59;;;;;;;36.27;24.30;;;1.60;99.90;;;;;;5115719;28;20418;-60
2022/12/15 14:01:28;;;;;;;35.67;24.27;;;1.60;99.90;;;;;;5115935;28;20422;-60
2022/12/15 14:04:03;;;;;;;41.33;24.40;;;1.60;99.90;;;;;;5115963;28;20937;-60
2022/12/15 14:06:36;;;;;;;41.27;26.57;;;1.60;99.90;;;;;;5115674;28;21014;-60
2022/12/15 14:09:05;;;;;;;33.83;24.47;;;1.60;99.90;;;;;;5116037;28;20427;-60
2022/12/15 14:11:35;;;;;;;34.57;23.33;;;1.60;99.90;;;;;;5115704;28;20951;-60
2022/12/15 14:14:03;;;;;;;35.60;24.20;;;1.70;99.90;;;;;;5115668;28;20423;-60
2022/12/15 14:16:34;;;;;;;40.80;24.20;;;1.70;99.90;;;;;;5115749;28;20439;-60
2022/12/15 14:19:12;;;;;;;35.17;24.07;;;1.60;99.90;;;;;;5115634;28;20791;-60
2022/12/15 14:21:51;;;;;;;35.53;22.90;;;1.60;99.90;;;;;;5115972;28;20435;-60
2022/12/15 14:24:28;;;;;;;32.77;22.10;;;1.50;99.90;;;;;;5115338;28;20965;-62
2022/12/15 14:26:56;;;;;;;45.30;25.30;;;1.60;99.90;;;;;;5115431;28;20498;-60
2022/12/15 14:29:23;;;;;;;34.87;22.83;;;1.70;99.90;;;;;;5115296;28;20507;-60
2022/12/15 14:31:58;;;;;;;39.50;25.53;;;1.60;99.90;;;;;;5115219;28;20442;-60
2022/12/15 14:34:31;;;;;;;41.00;26.30;;;1.50;99.90;;;;;;5115041;28;20438;-60
2022/12/15 14:37:01;;;;;;;38.07;22.57;;;1.60;99.90;;;;;;5114865;28;20455;-60
2022/12/15 14:39:36;;;;;;;36.20;24.50;;;1.60;99.90;;;;;;5114699;28;20496;-60
2022/12/15 14:42:06;;;;;;;35.87;24.47;;;1.60;99.90;;;;;;5114950;28;20431;-60
2022/12/15 14:44:36;;;;;;;39.73;24.87;;;1.50;99.90;;;;;;5115387;28;20449;-60
2022/12/15 14:47:06;;;;;;;34.83;22.53;;;1.60;99.90;;;;;;5115110;28;20442;-60
2022/12/15 14:49:39;;;;;;;40.30;24.07;;;1.50;99.90;;;;;;5114869;28;21007;-60
2022/12/15 14:52:25;;;;;;;38.70;26.07;;;1.50;99.90;;;;;;5115326;28;20782;-60
2022/12/15 14:54:55;;;;;;;43.47;24.30;;;1.60;99.90;;;;;;5114997;28;20422;-60
2022/12/15 14:57:25;;;;;;;38.73;22.23;;;1.60;99.90;;;;;;5114662;28;20450;-60
2022/12/15 14:59:52;;;;;;;36.87;25.17;;;1.60;99.90;;;;;;5114791;28;20470;-60
2022/12/15 15:02:22;;;;;;;39.37;23.63;;;1.60;99.90;;;;;;5114977;28;20469;-60
2022/12/15 15:04:58;;;;;;;40.40;24.30;;;1.60;99.90;;;;;;5114400;28;20453;-60
2022/12/15 15:07:28;;;;;;;38.93;23.80;;;1.60;99.90;;;;;;5114602;28;20465;-60
2022/12/15 15:09:56;;;;;;;36.90;23.53;;;1.70;99.90;;;;;;5115092;28;20462;-59
2022/12/15 15:12:25;;;;;;;38.10;23.47;;;1.70;99.90;;;;;;5114540;28;20500;-59
2022/12/15 15:14:58;;;;;;;39.53;25.33;;;1.70;99.90;;;;;;5114473;28;20450;-59
2022/12/15 15:17:30;;;;;;;36.50;23.20;;;1.70;99.90;;;;;;5114647;28;20442;-60
2022/12/15 15:20:01;;;;;;;34.23;23.90;;;1.70;99.90;;;;;;5114528;28;20462;-60
2022/12/15 15:22:38;;;;;;;40.10;25.17;;;1.80;99.90;;;;;;5114572;28;20491;-60